createdAt,value
2019-02-04T00:01:33.923Z,83.30
2019-02-04T00:04:02.544Z,83.54
2019-02-04T00:06:31.142Z,83.89
2019-02-04T00:08:59.727Z,84.21
2019-02-04T00:11:28.344Z,84.84
2019-02-04T00:16:40.937Z,85.27
2019-02-04T00:19:04.429Z,85.41
2019-02-04T00:21:33.044Z,85.50
2019-02-04T00:24:01.654Z,85.53
2019-02-04T00:26:30.269Z,85.54
2019-02-04T00:28:58.874Z,85.57
2019-02-04T00:31:27.480Z,85.71
2019-02-04T00:33:56.078Z,85.86
2019-02-04T00:36:24.702Z,85.96
2019-02-04T00:38:53.307Z,86.04
2019-02-04T00:41:21.920Z,85.91
2019-02-04T00:46:29.378Z,86.42
2019-02-04T00:48:58.063Z,86.29
2019-02-04T00:51:26.681Z,86.03
2019-02-04T00:56:34.166Z,86.60
2019-02-04T00:59:02.767Z,86.61
2019-02-04T01:01:31.704Z,86.40
2019-02-04T01:04:00.301Z,86.54
2019-02-04T01:06:28.899Z,86.60
2019-02-04T01:08:57.888Z,86.37
2019-02-04T01:11:26.497Z,86.47
2019-02-04T01:13:55.434Z,86.67
2019-02-04T01:16:24.027Z,86.68
2019-02-04T01:18:52.645Z,86.98
2019-02-04T01:21:21.303Z,87.53
2019-02-04T01:23:50.270Z,87.42
2019-02-04T01:26:18.857Z,86.96
2019-02-04T01:28:47.471Z,87.14
2019-02-04T01:31:16.065Z,87.31
2019-02-04T01:33:44.676Z,87.42
2019-02-04T01:36:13.591Z,87.18
2019-02-04T01:38:42.180Z,87.46
2019-02-04T01:41:10.777Z,87.71
2019-02-04T01:43:39.393Z,87.59
2019-02-04T01:46:07.996Z,87.76
2019-02-04T01:48:36.629Z,87.56
2019-02-04T01:51:05.591Z,86.98
2019-02-04T01:53:34.198Z,87.18
2019-02-04T01:56:03.163Z,86.66
2019-02-04T01:58:31.773Z,86.83
2019-02-04T02:01:00.379Z,87.05
2019-02-04T02:03:28.983Z,87.24
2019-02-04T02:05:57.573Z,87.29
2019-02-04T02:08:26.169Z,87.05
2019-02-04T02:10:55.167Z,87.23
2019-02-04T02:13:24.079Z,87.41
2019-02-04T02:15:52.683Z,87.37
2019-02-04T02:18:21.699Z,87.25
2019-02-04T02:20:50.292Z,87.31
2019-02-04T02:23:18.912Z,87.30
2019-02-04T02:25:47.520Z,87.17
2019-02-04T02:28:16.129Z,87.39
2019-02-04T02:30:45.047Z,87.47
2019-02-04T02:33:13.669Z,87.54
2019-02-04T02:35:42.256Z,87.59
2019-02-04T02:38:10.890Z,87.75
2019-02-04T02:40:39.500Z,87.60
2019-02-04T02:43:08.119Z,87.63
2019-02-04T02:45:36.722Z,87.87
2019-02-04T02:48:05.329Z,87.64
2019-02-04T02:50:33.946Z,87.80
2019-02-04T02:53:02.888Z,87.84
2019-02-04T02:55:31.781Z,88.13
2019-02-04T02:58:00.390Z,87.68
2019-02-04T03:00:29.008Z,87.87
2019-02-04T03:02:57.641Z,88.00
2019-02-04T03:05:26.624Z,87.88
2019-02-04T03:07:55.247Z,87.94
2019-02-04T03:10:23.888Z,88.20
2019-02-04T03:12:52.508Z,88.44
2019-02-04T03:15:21.454Z,88.26
2019-02-04T03:17:52.338Z,87.94
2019-02-04T03:20:19.032Z,88.17
2019-02-04T03:22:47.676Z,88.06
2019-02-04T03:25:16.291Z,87.99
2019-02-04T03:27:44.950Z,87.99
2019-02-04T03:30:28.828Z,87.99
2019-02-04T03:32:57.449Z,88.09
2019-02-04T03:35:26.338Z,88.03
2019-02-04T03:37:54.963Z,88.00
2019-02-04T03:40:26.696Z,87.60
2019-02-04T03:42:55.438Z,87.62
2019-02-04T03:45:24.052Z,87.62
2019-02-04T03:48:04.289Z,87.93
2019-02-04T03:50:21.281Z,87.67
2019-02-04T03:52:49.916Z,87.88
2019-02-04T03:55:18.553Z,87.79
2019-02-04T03:57:47.169Z,87.42
2019-02-04T04:02:57.371Z,87.59
2019-02-04T04:05:25.990Z,87.58
2019-02-04T04:07:54.691Z,87.48
2019-02-04T04:10:23.329Z,86.83
2019-02-04T04:12:52.511Z,86.84
2019-02-04T04:15:21.146Z,86.86
2019-02-04T04:17:49.749Z,87.01
2019-02-04T04:20:18.664Z,86.93
2019-02-04T04:22:47.661Z,87.00
2019-02-04T04:25:16.296Z,87.41
2019-02-04T04:27:45.236Z,87.21
2019-02-04T04:32:55.740Z,87.43
2019-02-04T04:35:24.598Z,87.41
2019-02-04T04:37:53.230Z,87.40
2019-02-04T04:40:21.847Z,87.34
2019-02-04T04:42:50.451Z,86.83
2019-02-04T04:45:21.869Z,86.60
2019-02-04T04:47:50.791Z,86.46
2019-02-04T04:50:19.387Z,86.46
2019-02-04T04:52:48.028Z,86.58
2019-02-04T04:55:19.393Z,86.43
2019-02-04T04:57:48.004Z,86.38
2019-02-04T05:00:28.936Z,86.42
2019-02-04T05:02:57.565Z,86.37
2019-02-04T05:05:26.509Z,86.17
2019-02-04T05:07:55.409Z,86.26
2019-02-04T05:10:24.042Z,86.30
2019-02-04T05:12:52.694Z,86.25
2019-02-04T05:17:59.845Z,85.99
2019-02-04T05:20:28.479Z,85.62
2019-02-04T05:22:57.113Z,85.66
2019-02-04T05:25:25.730Z,85.73
2019-02-04T05:27:54.322Z,85.35
2019-02-04T05:30:22.979Z,85.25
2019-02-04T05:32:51.603Z,85.22
2019-02-04T05:35:20.550Z,84.99
2019-02-04T05:37:49.151Z,84.81
2019-02-04T05:40:18.063Z,84.68
2019-02-04T05:42:46.664Z,84.43
2019-02-04T05:45:15.333Z,84.75
2019-02-04T05:47:43.919Z,84.63
2019-02-04T05:50:17.258Z,84.57
2019-02-04T05:52:44.340Z,84.50
2019-02-04T05:55:13.328Z,84.66
2019-02-04T05:57:42.281Z,84.53
2019-02-04T06:00:11.276Z,84.63
2019-02-04T06:02:39.887Z,84.81
2019-02-04T06:05:08.534Z,84.71
2019-02-04T06:07:37.137Z,84.75
2019-02-04T06:10:06.117Z,84.91
2019-02-04T06:12:35.130Z,85.35
2019-02-04T06:15:03.350Z,85.38
2019-02-04T06:17:31.942Z,85.37
2019-02-04T06:20:02.920Z,85.43
2019-02-04T06:22:29.543Z,85.15
2019-02-04T06:24:58.193Z,85.06
2019-02-04T06:30:05.692Z,85.10
2019-02-04T06:32:34.817Z,84.66
2019-02-04T06:35:03.235Z,84.79
2019-02-04T06:37:31.832Z,85.10
2019-02-04T06:40:00.440Z,85.09
2019-02-04T06:42:30.094Z,84.61
2019-02-04T06:44:58.682Z,84.61
2019-02-04T06:47:27.306Z,84.91
2019-02-04T06:49:55.908Z,84.57
2019-02-04T06:52:24.798Z,84.62
2019-02-04T06:54:53.433Z,84.70
2019-02-04T06:57:22.373Z,84.94
2019-02-04T06:59:51.038Z,84.78
2019-02-04T07:02:19.942Z,84.92
2019-02-04T07:04:48.561Z,85.22
2019-02-04T07:07:17.192Z,85.22
2019-02-04T07:09:45.789Z,85.30
2019-02-04T07:12:14.382Z,85.51
2019-02-04T07:14:43.364Z,85.59
2019-02-04T07:17:11.976Z,85.46
2019-02-04T07:19:40.593Z,85.60
2019-02-04T07:22:09.189Z,85.57
2019-02-04T07:24:42.808Z,85.54
2019-02-04T07:27:06.991Z,85.44
2019-02-04T07:29:35.654Z,85.11
2019-02-04T07:32:04.264Z,84.68
2019-02-04T07:34:32.884Z,84.53
2019-02-04T07:37:01.496Z,83.50
2019-02-04T07:39:30.111Z,82.74
2019-02-04T07:41:58.747Z,82.59
2019-02-04T07:44:27.677Z,83.22
2019-02-04T07:46:56.322Z,83.57
2019-02-04T07:49:34.744Z,83.60
2019-02-04T07:51:53.523Z,83.65
2019-02-04T07:54:22.409Z,83.78
2019-02-04T07:56:51.301Z,83.53
2019-02-04T07:59:19.908Z,83.49
2019-02-04T08:01:48.512Z,82.96
2019-02-04T08:04:17.451Z,82.94
2019-02-04T08:06:46.335Z,82.66
2019-02-04T08:09:14.936Z,81.99
2019-02-04T08:11:43.913Z,81.98
2019-02-04T08:14:12.492Z,81.96
2019-02-04T08:16:41.106Z,81.87
2019-02-04T08:19:10.069Z,81.76
2019-02-04T08:21:38.670Z,81.10
2019-02-04T08:24:07.279Z,81.36
2019-02-04T08:26:35.892Z,81.42
2019-02-04T08:29:04.494Z,80.83
2019-02-04T08:31:33.129Z,80.62
2019-02-04T08:34:01.765Z,80.19
2019-02-04T08:36:30.345Z,80.01
2019-02-04T08:38:58.955Z,79.50
2019-02-04T08:41:27.566Z,79.14
2019-02-04T08:43:56.151Z,78.76
2019-02-04T08:46:24.781Z,78.31
2019-02-04T08:48:53.378Z,77.81
2019-02-04T08:51:22.013Z,77.05
2019-02-04T08:53:50.596Z,77.15
2019-02-04T08:56:19.209Z,76.08
2019-02-04T08:58:47.900Z,76.34
2019-02-04T09:01:16.507Z,75.94
2019-02-04T09:03:45.499Z,75.76
2019-02-04T09:06:14.441Z,75.04
2019-02-04T09:08:43.334Z,75.17
2019-02-04T09:11:12.325Z,74.76
2019-02-04T09:13:40.922Z,74.60
2019-02-04T09:16:09.898Z,73.96
2019-02-04T09:18:44.799Z,74.17
2019-02-04T09:21:07.103Z,73.73
2019-02-04T09:23:35.735Z,73.83
2019-02-04T09:26:04.372Z,73.44
2019-02-04T09:28:32.995Z,73.05
2019-02-04T09:31:01.626Z,73.00
2019-02-04T09:33:30.581Z,72.30
2019-02-04T09:36:19.554Z,72.04
2019-02-04T09:38:48.432Z,71.64
2019-02-04T09:41:17.039Z,71.58
2019-02-04T09:43:45.643Z,71.63
2019-02-04T09:46:14.265Z,70.93
2019-02-04T09:48:43.153Z,70.63
2019-02-04T09:51:11.785Z,71.13
2019-02-04T09:53:40.381Z,70.93
2019-02-04T09:56:09.022Z,71.08
2019-02-04T09:58:37.608Z,70.48
2019-02-04T10:01:06.609Z,70.61
2019-02-04T10:03:35.213Z,69.93
2019-02-04T10:06:04.103Z,70.09
2019-02-04T10:08:33.049Z,70.00
2019-02-04T10:11:01.702Z,69.50
2019-02-04T10:13:30.334Z,69.33
2019-02-04T10:15:58.990Z,69.79
2019-02-04T10:18:27.561Z,70.11
2019-02-04T10:20:56.234Z,68.95
2019-02-04T10:23:24.828Z,69.56
2019-02-04T10:25:53.448Z,68.39
2019-02-04T10:28:22.048Z,68.78
2019-02-04T10:30:51.022Z,68.77
2019-02-04T10:33:20.233Z,68.35
2019-02-04T10:35:48.593Z,66.89
2019-02-04T10:40:51.602Z,67.98
2019-02-04T10:43:20.214Z,68.16
2019-02-04T10:45:48.836Z,68.12
2019-02-04T10:48:17.527Z,68.25
2019-02-04T10:50:47.264Z,68.05
2019-02-04T10:53:14.767Z,67.10
2019-02-04T10:55:43.705Z,67.27
2019-02-04T10:58:12.666Z,66.25
2019-02-04T11:00:41.657Z,65.85
2019-02-04T11:03:10.311Z,65.18
2019-02-04T11:05:38.913Z,65.80
2019-02-04T11:08:07.552Z,65.37
2019-02-04T11:10:36.209Z,64.39
2019-02-04T11:13:04.957Z,64.14
2019-02-04T11:15:33.417Z,63.44
2019-02-04T11:18:02.087Z,62.72
2019-02-04T11:20:30.716Z,63.45
2019-02-04T11:22:59.351Z,62.90
2019-02-04T11:25:28.289Z,61.83
2019-02-04T11:27:57.277Z,62.29
2019-02-04T11:30:29.028Z,62.52
2019-02-04T11:32:57.655Z,60.56
2019-02-04T11:35:26.267Z,61.79
2019-02-04T11:37:54.925Z,60.63
2019-02-04T11:43:01.767Z,61.00
2019-02-04T11:45:30.666Z,60.15
2019-02-04T11:47:59.687Z,60.12
2019-02-04T11:50:28.500Z,60.16
2019-02-04T11:52:57.126Z,60.05
2019-02-04T11:55:25.826Z,59.17
2019-02-04T11:57:54.705Z,59.31
2019-02-04T12:03:01.910Z,58.87
2019-02-04T12:05:30.889Z,57.83
2019-02-04T12:07:59.495Z,58.46
2019-02-04T12:10:31.215Z,59.88
2019-02-04T12:12:59.850Z,59.34
2019-02-04T12:15:28.787Z,59.13
2019-02-04T12:17:57.813Z,59.16
2019-02-04T12:20:26.674Z,59.29
2019-02-04T12:22:55.566Z,58.48
2019-02-04T12:25:27.320Z,58.05
2019-02-04T12:27:55.951Z,58.13
2019-02-04T12:33:09.325Z,58.10
2019-02-04T12:35:37.928Z,58.27
2019-02-04T12:38:06.917Z,59.04
2019-02-04T12:40:35.548Z,58.62
2019-02-04T12:43:04.130Z,58.48
2019-02-04T12:48:14.391Z,56.68
2019-02-04T12:50:42.982Z,57.02
2019-02-04T12:53:11.931Z,57.30
2019-02-04T12:55:40.531Z,57.17
2019-02-04T12:58:09.489Z,57.60
2019-02-04T13:00:38.519Z,58.24
2019-02-04T13:03:07.378Z,58.55
2019-02-04T13:05:41.976Z,58.45
2019-02-04T13:08:10.621Z,59.30
2019-02-04T13:10:39.259Z,59.26
2019-02-04T13:13:08.354Z,58.99
2019-02-04T13:15:36.973Z,58.98
2019-02-04T13:18:05.608Z,58.35
2019-02-04T13:20:34.230Z,59.26
2019-02-04T13:23:02.874Z,59.16
2019-02-04T13:25:31.779Z,59.19
2019-02-04T13:28:00.403Z,59.19
2019-02-04T13:30:29.357Z,59.32
2019-02-04T13:32:57.979Z,60.13
2019-02-04T13:35:26.923Z,60.16
2019-02-04T13:37:55.529Z,61.04
2019-02-04T13:40:30.362Z,60.42
2019-02-04T13:42:58.968Z,59.97
2019-02-04T13:45:27.892Z,60.47
2019-02-04T13:47:56.892Z,60.79
2019-02-04T13:50:25.518Z,60.84
2019-02-04T13:52:54.523Z,60.10
2019-02-04T13:55:23.144Z,60.50
2019-02-04T13:57:51.760Z,60.13
2019-02-04T14:00:20.727Z,60.51
2019-02-04T14:02:58.896Z,61.47
2019-02-04T14:05:17.981Z,61.53
2019-02-04T14:07:46.617Z,60.98
2019-02-04T14:12:53.918Z,60.23
2019-02-04T14:15:22.532Z,60.73
2019-02-04T14:17:51.196Z,60.94
2019-02-04T14:20:20.126Z,60.94
2019-02-04T14:22:49.109Z,61.08
2019-02-04T14:25:17.724Z,61.63
2019-02-04T14:27:46.631Z,62.48
2019-02-04T14:30:15.543Z,62.86
2019-02-04T14:32:44.140Z,62.79
2019-02-04T14:35:13.045Z,63.00
2019-02-04T14:37:44.941Z,63.05
2019-02-04T14:40:18.738Z,63.32
2019-02-04T14:42:39.253Z,63.43
2019-02-04T14:57:11.553Z,64.64
2019-02-04T14:59:40.195Z,64.56
2019-02-04T15:02:11.781Z,65.25
2019-02-04T15:04:55.644Z,64.57
2019-02-04T15:07:33.228Z,64.69
2019-02-04T15:10:17.128Z,64.99
2019-02-04T15:13:17.172Z,64.93
2019-02-04T15:15:54.828Z,65.49
2019-02-04T15:18:32.561Z,66.54
2019-02-04T15:21:13.248Z,66.69
2019-02-04T15:26:35.506Z,65.90
2019-02-04T15:29:04.185Z,66.71
2019-02-04T15:31:32.820Z,66.93
2019-02-04T15:40:32.172Z,67.71
2019-02-04T15:43:16.667Z,68.02
2019-02-04T15:45:57.155Z,68.52
2019-02-04T15:48:25.792Z,68.68
2019-02-04T15:51:10.041Z,68.89
2019-02-04T15:53:38.658Z,68.35
2019-02-04T15:56:07.299Z,68.31
2019-02-04T15:58:35.907Z,68.85
2019-02-04T16:01:04.936Z,68.65
2019-02-04T16:03:33.446Z,67.65
2019-02-04T16:06:02.334Z,68.62
2019-02-04T16:08:30.916Z,69.36
2019-02-04T16:10:59.539Z,69.53
2019-02-04T16:13:28.594Z,69.61
2019-02-04T16:15:57.222Z,69.86
2019-02-04T16:18:26.163Z,69.03
2019-02-04T16:20:54.768Z,68.32
2019-02-04T16:23:23.738Z,68.64
2019-02-04T16:25:52.342Z,68.55
2019-02-04T16:28:20.956Z,68.19
2019-02-04T16:30:49.892Z,68.45
2019-02-04T16:33:18.505Z,69.11
2019-02-04T16:35:47.103Z,68.96
2019-02-04T16:38:15.716Z,68.89
2019-02-04T16:40:44.315Z,69.56
2019-02-04T16:43:12.920Z,69.82
2019-02-04T16:45:41.533Z,70.14
2019-02-04T16:48:10.157Z,70.03
2019-02-04T16:50:39.157Z,70.40
2019-02-04T16:53:10.750Z,70.27
2019-02-04T16:55:36.731Z,69.04
2019-02-04T16:58:05.354Z,69.08
2019-02-04T17:00:34.449Z,69.28
2019-02-04T17:03:03.410Z,69.62
2019-02-04T17:05:32.499Z,68.98
2019-02-04T17:08:01.617Z,69.15
2019-02-04T17:10:30.485Z,69.48
2019-02-04T17:12:59.466Z,69.72
2019-02-04T17:15:28.456Z,69.78
2019-02-04T17:17:57.080Z,69.87
2019-02-04T17:20:25.985Z,69.87
2019-02-04T17:22:54.659Z,69.48
2019-02-04T17:25:23.299Z,69.82
2019-02-04T17:27:51.916Z,70.31
2019-02-04T17:30:23.339Z,70.04
2019-02-04T17:32:52.309Z,70.00
2019-02-04T17:35:20.941Z,69.79
2019-02-04T17:37:49.990Z,69.90
2019-02-04T17:40:18.646Z,70.04
2019-02-04T17:42:47.566Z,70.32
2019-02-04T17:45:16.209Z,70.58
2019-02-04T17:47:45.142Z,70.74
2019-02-04T17:50:17.193Z,70.53
2019-02-04T17:52:45.894Z,70.51
2019-02-04T17:55:14.498Z,70.49
2019-02-04T17:57:43.124Z,70.30
2019-02-04T18:00:20.910Z,70.08
2019-02-04T18:02:49.671Z,69.65
2019-02-04T18:05:18.247Z,69.38
2019-02-04T18:07:47.213Z,68.86
2019-02-04T18:10:15.892Z,69.24
2019-02-04T18:12:44.496Z,69.20
2019-02-04T18:15:13.457Z,68.88
2019-02-04T18:17:42.049Z,68.88
2019-02-04T18:20:11.026Z,69.24
2019-02-04T18:22:39.617Z,69.55
2019-02-04T18:25:08.334Z,69.00
2019-02-04T18:27:37.023Z,68.67
2019-02-04T18:30:05.893Z,68.92
2019-02-04T18:32:34.858Z,69.12
2019-02-04T18:35:03.847Z,69.04
2019-02-04T18:37:33.035Z,69.96
2019-02-04T18:40:01.721Z,70.11
2019-02-04T18:42:30.516Z,69.76
2019-02-04T18:44:59.198Z,69.82
2019-02-04T18:50:09.132Z,69.91
2019-02-04T18:52:37.783Z,70.21
2019-02-04T18:55:06.734Z,70.71
2019-02-04T18:57:35.623Z,70.78
2019-02-04T19:00:04.275Z,70.41
2019-02-04T19:02:32.885Z,70.56
2019-02-04T19:05:01.896Z,70.66
2019-02-04T19:07:30.568Z,70.93
2019-02-04T19:09:59.200Z,71.05
2019-02-04T19:12:28.007Z,70.85
2019-02-04T19:14:57.022Z,71.14
2019-02-04T19:17:25.633Z,71.15
2019-02-04T19:19:54.317Z,70.77
2019-02-04T19:22:22.976Z,70.77
2019-02-04T19:24:51.621Z,71.02
2019-02-04T19:27:20.564Z,71.28
2019-02-04T19:29:49.215Z,72.47
2019-02-04T19:32:18.219Z,71.70
2019-02-04T19:34:46.998Z,71.49
2019-02-04T19:37:16.095Z,71.62
2019-02-04T19:39:45.188Z,71.88
2019-02-04T19:42:13.873Z,71.48
2019-02-04T19:44:42.660Z,71.68
2019-02-04T19:47:11.644Z,70.80
2019-02-04T19:49:40.748Z,70.80
2019-02-04T19:52:09.399Z,70.64
2019-02-04T19:54:38.071Z,71.11
2019-02-04T19:57:06.760Z,71.51
2019-02-04T19:59:35.991Z,70.73
2019-02-04T20:02:05.190Z,70.93
2019-02-04T20:04:33.920Z,70.89
2019-02-04T20:07:03.077Z,70.75
2019-02-04T20:09:31.948Z,69.35
2019-02-04T20:12:00.553Z,69.70
2019-02-04T20:14:29.387Z,68.67
2019-02-04T20:16:58.068Z,68.68
2019-02-04T20:19:26.690Z,68.09
2019-02-04T20:21:55.806Z,68.61
2019-02-04T20:24:32.882Z,67.52
2019-02-04T20:26:53.778Z,67.61
2019-02-04T20:29:22.627Z,67.81
2019-02-04T20:31:51.215Z,68.07
2019-02-04T20:34:20.382Z,67.15
2019-02-04T20:36:49.238Z,67.91
2019-02-04T20:39:17.941Z,67.86
2019-02-04T20:41:46.871Z,67.31
2019-02-04T20:44:19.136Z,68.00
2019-02-04T20:46:46.721Z,67.87
2019-02-04T20:49:15.610Z,68.22
2019-02-04T20:51:44.605Z,67.79
2019-02-04T20:54:19.916Z,67.81
2019-02-04T20:56:42.587Z,68.01
2019-02-04T20:59:11.284Z,67.78
2019-02-04T21:01:40.272Z,67.19
2019-02-04T21:04:08.923Z,66.85
2019-02-04T21:06:37.638Z,67.32
2019-02-04T21:09:06.612Z,67.83
2019-02-04T21:11:35.332Z,66.90
2019-02-04T21:14:04.303Z,67.28
2019-02-04T21:16:32.991Z,67.67
2019-02-04T21:19:01.694Z,67.80
2019-02-04T21:21:30.655Z,67.47
2019-02-04T21:23:59.387Z,67.45
2019-02-04T21:26:28.074Z,67.16
2019-02-04T21:28:57.017Z,66.56
2019-02-04T21:31:26.006Z,66.49
2019-02-04T21:33:54.633Z,66.67
2019-02-04T21:36:23.361Z,67.27
2019-02-04T21:38:52.003Z,67.54
2019-02-04T21:41:20.645Z,67.39
2019-02-04T21:43:49.262Z,67.76
2019-02-04T21:46:17.855Z,67.00
2019-02-04T21:48:46.796Z,67.30
2019-02-04T21:51:15.402Z,67.01
2019-02-04T21:53:44.030Z,66.62
2019-02-04T21:56:12.666Z,67.13
2019-02-04T21:58:41.297Z,66.73
2019-02-04T22:01:09.965Z,66.88
2019-02-04T22:03:38.586Z,67.01
2019-02-04T22:06:07.181Z,67.34
2019-02-04T22:08:35.853Z,66.33
2019-02-04T22:11:04.749Z,66.91
2019-02-04T22:13:33.361Z,67.21
2019-02-04T22:16:02.317Z,66.92
2019-02-04T22:18:30.932Z,66.54
2019-02-04T22:20:59.548Z,66.48
2019-02-04T22:23:28.591Z,66.28
2019-02-04T22:25:57.480Z,66.39
2019-02-04T22:28:26.081Z,66.29
2019-02-04T22:30:54.677Z,67.21
2019-02-04T22:33:23.307Z,67.16
2019-02-04T22:35:52.200Z,67.67
2019-02-04T22:38:20.800Z,67.87
2019-02-04T22:40:49.399Z,67.05
2019-02-04T22:43:18.010Z,67.11
2019-02-04T22:45:46.600Z,66.21
2019-02-04T22:48:15.219Z,66.47
2019-02-04T22:50:44.092Z,66.46
2019-02-04T22:53:12.723Z,66.26
2019-02-04T22:55:41.332Z,66.46
2019-02-04T22:58:09.965Z,64.72
2019-02-04T23:03:32.488Z,65.27
2019-02-04T23:06:01.090Z,65.31
2019-02-04T23:08:30.104Z,65.26
2019-02-04T23:10:58.713Z,65.50
2019-02-04T23:13:27.654Z,65.85
2019-02-04T23:15:56.533Z,66.08
2019-02-04T23:18:25.526Z,66.09
2019-02-04T23:20:54.415Z,65.70
2019-02-04T23:23:23.049Z,65.27
2019-02-04T23:25:51.986Z,66.07
2019-02-04T23:28:20.610Z,66.70
2019-02-04T23:30:49.213Z,66.70
2019-02-04T23:33:17.837Z,66.99
2019-02-04T23:35:46.440Z,67.60
2019-02-04T23:38:15.074Z,67.49
2019-02-04T23:40:43.688Z,67.33
2019-02-04T23:43:12.572Z,67.31
2019-02-04T23:45:41.171Z,66.28
2019-02-04T23:48:09.793Z,66.00
2019-02-04T23:50:38.418Z,66.29
2019-02-04T23:53:07.023Z,65.96
2019-02-04T23:55:35.627Z,65.77
2019-02-04T23:58:04.255Z,66.27
